Custer, Michigan
Current Conditions -  °F | °C
As of 6:15 PM on Saturday 25 Oct 2014 (Local Time) from KLDM Reporting Station
Clear Clear  
Wind Chill: 14°   Ceiling: Unl
Heat Index: 14°   Visibility: 10mi
Dew Point:   Wind: 9mph
Humidity: 66%   Direction: 280°W
Pressure: 29.82"   Gusts: NA
Location:  43.95°N, 86.22°W
Report Text: KLDM 252215Z AUTO 28008KT 10SM CLR 14/08 A2982 RMK AO2 T01380075
Loading
Personal Weather Stations






























Interactive Weather Map
Tropical Storm Tracking
New forecast layout! Learn more

10-Day Weather Forecast

Advertisements
Track Severe Weather on mobile